Hlavní strana
METAR-TAF:

METAR-TAF

Letiště :

Cahokia / St. Louis, Illinois, Spojené státy americké

zeměpisná šířka: 38-34-15N, zeměpisná délka: 090-09-22W, výška: 126 m

Aktuální stav počasí

Zpráva byla vytvořena před 34 minutami, v 20:53 UTC
Východoseverovýchodní vítr 7 kt, proměnlivý mezi severoseverovýchodním a východním
Teplota 9°C
Vlhkost vzduchu 43%
Tlak 1027 hPa
Viditelnost: 16.1 km
Jasno

METAR: KCPS 252053Z 07007KT 030V100 10SM CLR 09/M03 A3034 RMK AO2 SLP276 T00941033 56024

Čas: 15:27 (21:27 UTC)

Předpověď počasí

Zpráva byla vytvořena před 4 hodinami a 3 minutami, v 17:24 UTC
Předpověď platná od 25 v 18 UTC do 26 v 18 UTC
vítr z různých směrů 4 kt
Viditelnost: 10 km
Oblačno až skoro zataženo ve výšce 20000 ft
Od 26 v 1400 UTC
Východojihovýchodní vítr 8 kt
Viditelnost: 10 km
Oblačno až skoro zataženo ve výšce 15000 ft

TAF: KCPS 251724Z 2518/2618 VRB04KT P6SM BKN200 FM261400 11008KT P6SM BKN150

Stav a předpovědi počasí z více než 4 000 letišť (zprávy METAR a TAF).

Červené a žluté tečky na mapě představují dostupné meteorologické stanice.

Když kurzor umístíte na tečku, zobrazí se název stanice.

Pak kliknutím zobrazíte stav a předpověď počasí.

Chcete-li změnit mapu, kliknutím na zelené tlačítko se znaménkem +mapu přiblížíte, kliknutím na zelené tlačítko se znaménkem – mapu oddálíte a kliknutím na zelené šipky přejdete na sousední mapy.


METAR-TAF: